createdAt,value
2022-08-20T00:02:01.358Z,100239.53
2022-08-20T00:04:25.188Z,100233.72
2022-08-20T00:06:48.809Z,100241.56
2022-08-20T00:09:12.125Z,100234.00
2022-08-20T00:11:35.739Z,100236.34
2022-08-20T00:14:02.857Z,100235.81
2022-08-20T00:16:27.105Z,100227.50
2022-08-20T00:18:50.118Z,100232.03
2022-08-20T00:21:18.873Z,100233.09
2022-08-20T00:23:43.645Z,100229.97
2022-08-20T00:26:06.782Z,100225.34
2022-08-20T00:28:30.034Z,100239.69
2022-08-20T00:30:54.723Z,100226.88
2022-08-20T00:33:22.917Z,100217.56
2022-08-20T00:35:48.362Z,100225.53
2022-08-20T00:38:11.607Z,100217.25
2022-08-20T00:40:36.453Z,100223.66
2022-08-20T00:43:02.239Z,100212.72
2022-08-20T00:45:25.730Z,100208.78
2022-08-20T00:47:51.409Z,100209.16
2022-08-20T00:50:17.295Z,100210.97
2022-08-20T00:52:41.956Z,100209.81
2022-08-20T00:55:13.607Z,100212.69
2022-08-20T00:57:46.133Z,100203.00
2022-08-20T01:00:24.765Z,100196.91
2022-08-20T01:02:48.490Z,100197.38
2022-08-20T01:05:13.752Z,100188.44
2022-08-20T01:07:37.886Z,100179.00
2022-08-20T01:10:01.222Z,100187.84
2022-08-20T01:12:25.213Z,100185.66
2022-08-20T01:14:48.574Z,100186.81
2022-08-20T01:17:14.691Z,100183.97
2022-08-20T01:19:40.939Z,100188.41
2022-08-20T01:22:26.941Z,100183.19
2022-08-20T01:24:50.415Z,100191.38
2022-08-20T01:27:15.071Z,100195.84
2022-08-20T01:29:39.956Z,100188.09
2022-08-20T01:32:03.245Z,100188.22
2022-08-20T01:34:26.551Z,100188.66
2022-08-20T01:36:51.734Z,100188.09
2022-08-20T01:39:17.322Z,100180.69
2022-08-20T01:41:49.205Z,100179.56
2022-08-20T01:44:16.937Z,100184.41
2022-08-20T01:46:43.891Z,100180.41
2022-08-20T01:49:13.497Z,100182.63
2022-08-20T01:51:37.151Z,100182.78
2022-08-20T01:54:00.883Z,100187.13
2022-08-20T01:56:25.783Z,100185.69
2022-08-20T01:58:55.886Z,100191.97
2022-08-20T02:01:23.914Z,100188.31
2022-08-20T02:03:47.255Z,100185.41
2022-08-20T02:06:10.518Z,100182.13
2022-08-20T02:08:33.970Z,100184.31
2022-08-20T02:10:57.328Z,100183.09
2022-08-20T02:13:20.565Z,100176.06
2022-08-20T02:15:43.914Z,100179.63
2022-08-20T02:18:11.489Z,100177.63
2022-08-20T02:20:34.785Z,100181.59
2022-08-20T02:22:59.262Z,100171.13
2022-08-20T02:25:23.211Z,100167.72
2022-08-20T02:27:47.075Z,100172.44
2022-08-20T02:30:27.579Z,100173.41
2022-08-20T02:32:51.662Z,100172.81
2022-08-20T02:35:21.202Z,100172.47
2022-08-20T02:37:44.911Z,100171.41
2022-08-20T02:40:09.644Z,100179.50
2022-08-20T02:42:32.944Z,100176.91
2022-08-20T02:44:58.621Z,100179.50
2022-08-20T02:47:21.905Z,100173.13
2022-08-20T02:49:45.299Z,100179.66
2022-08-20T02:52:10.050Z,100177.94
2022-08-20T02:54:33.432Z,100176.13
2022-08-20T02:56:56.654Z,100186.31
2022-08-20T02:59:20.152Z,100182.59
2022-08-20T03:01:43.502Z,100177.22
2022-08-20T03:04:06.954Z,100176.69
2022-08-20T03:06:30.352Z,100175.56
2022-08-20T03:08:55.177Z,100178.88
2022-08-20T03:11:18.880Z,100174.81
2022-08-20T03:13:42.259Z,100169.19
2022-08-20T03:16:05.918Z,100173.00
2022-08-20T03:18:34.681Z,100179.88
2022-08-20T03:20:58.056Z,100179.31
2022-08-20T03:23:21.647Z,100177.53
2022-08-20T03:25:46.575Z,100171.78
2022-08-20T03:28:09.842Z,100179.59
2022-08-20T03:30:33.318Z,100175.56
2022-08-20T03:32:56.670Z,100165.97
2022-08-20T03:35:20.946Z,100174.19
2022-08-20T03:37:44.188Z,100176.13
2022-08-20T03:40:15.618Z,100183.97
2022-08-20T03:42:40.451Z,100183.41
2022-08-20T03:45:03.806Z,100181.81
2022-08-20T03:47:27.035Z,100183.66
2022-08-20T03:49:50.568Z,100179.78
2022-08-20T03:52:14.311Z,100178.13
2022-08-20T03:54:37.652Z,100184.63
2022-08-20T03:57:03.026Z,100172.84
2022-08-20T03:59:37.486Z,100186.03
2022-08-20T04:02:01.060Z,100183.38
2022-08-20T04:04:24.310Z,100195.53
2022-08-20T04:06:48.154Z,100192.78
2022-08-20T04:09:12.115Z,100190.75
2022-08-20T04:11:35.706Z,100197.88
2022-08-20T04:13:58.954Z,100198.00
2022-08-20T04:16:23.653Z,100185.41
2022-08-20T04:19:01.859Z,100192.47
2022-08-20T04:21:26.200Z,100194.19
2022-08-20T04:23:56.711Z,100191.78
2022-08-20T04:26:20.315Z,100195.88
2022-08-20T04:28:43.652Z,100197.72
2022-08-20T04:31:06.899Z,100191.44
2022-08-20T04:33:34.086Z,100209.31
2022-08-20T04:36:00.456Z,100204.41
2022-08-20T04:38:24.034Z,100210.31
2022-08-20T04:40:57.992Z,100207.09
2022-08-20T04:43:23.001Z,100212.66
2022-08-20T04:45:47.196Z,100214.03
2022-08-20T04:48:14.785Z,100204.81
2022-08-20T04:50:40.117Z,100207.72
2022-08-20T04:53:03.846Z,100207.22
2022-08-20T04:55:27.099Z,100213.97
2022-08-20T04:57:50.374Z,100212.78
2022-08-20T05:00:16.111Z,100209.88
2022-08-20T05:02:39.359Z,100211.84
2022-08-20T05:05:02.661Z,100209.91
2022-08-20T05:07:27.283Z,100205.09
2022-08-20T05:09:50.586Z,100208.75
2022-08-20T05:12:18.148Z,100209.59
2022-08-20T05:14:41.461Z,100208.88
2022-08-20T05:17:06.380Z,100213.94
2022-08-20T05:19:30.051Z,100212.56
2022-08-20T05:21:53.798Z,100210.13
2022-08-20T05:24:18.545Z,100209.47
2022-08-20T05:26:41.796Z,100209.88
2022-08-20T05:29:06.860Z,100208.00
2022-08-20T05:31:31.237Z,100209.34
2022-08-20T05:33:57.960Z,100202.94
2022-08-20T05:36:22.634Z,100203.16
2022-08-20T05:38:49.690Z,100197.50
2022-08-20T05:41:14.856Z,100198.88
2022-08-20T05:43:52.773Z,100193.72
2022-08-20T05:46:16.985Z,100200.75
2022-08-20T05:48:40.256Z,100187.63
2022-08-20T05:51:03.630Z,100192.69
2022-08-20T05:53:27.061Z,100195.69
2022-08-20T05:55:50.599Z,100185.44
2022-08-20T05:58:19.665Z,100179.19
2022-08-20T06:00:42.937Z,100184.78
2022-08-20T06:03:23.589Z,100181.50
2022-08-20T06:05:46.913Z,100179.84
2022-08-20T06:08:10.614Z,100179.09
2022-08-20T06:10:33.959Z,100180.00
2022-08-20T06:12:57.270Z,100175.94
2022-08-20T06:15:22.115Z,100177.22
2022-08-20T06:17:46.968Z,100170.41
2022-08-20T06:20:21.541Z,100168.06
2022-08-20T06:22:47.462Z,100173.44
2022-08-20T06:25:11.239Z,100175.34
2022-08-20T06:27:34.610Z,100179.38
2022-08-20T06:29:59.035Z,100177.97
2022-08-20T06:32:32.288Z,100176.94
2022-08-20T06:34:56.155Z,100187.41
2022-08-20T06:37:21.087Z,100188.91
2022-08-20T06:39:44.473Z,100184.97
2022-08-20T06:42:07.878Z,100184.78
2022-08-20T06:44:31.230Z,100191.69
2022-08-20T06:46:55.717Z,100184.41
2022-08-20T06:49:20.370Z,100191.31
2022-08-20T06:51:43.666Z,100193.00
2022-08-20T06:54:07.588Z,100195.69
2022-08-20T06:56:30.843Z,100196.34
2022-08-20T06:58:54.118Z,100194.47
2022-08-20T07:01:18.046Z,100194.28
2022-08-20T07:03:42.180Z,100194.56
2022-08-20T07:06:19.187Z,100192.69
2022-08-20T07:08:42.421Z,100195.19
2022-08-20T07:11:05.708Z,100195.84
2022-08-20T07:13:29.274Z,100192.75
2022-08-20T07:15:53.978Z,100189.84
2022-08-20T07:18:17.988Z,100199.47
2022-08-20T07:20:55.023Z,100196.38
2022-08-20T07:23:19.638Z,100197.09
2022-08-20T07:25:43.711Z,100199.59
2022-08-20T07:28:08.221Z,100190.84
2022-08-20T07:30:57.104Z,100198.81
2022-08-20T07:33:21.097Z,100194.91
2022-08-20T07:35:48.783Z,100190.47
2022-08-20T07:38:15.599Z,100192.19
2022-08-20T07:40:40.374Z,100183.84
2022-08-20T07:43:03.748Z,100191.81
2022-08-20T07:45:26.997Z,100182.63
2022-08-20T07:47:53.646Z,100183.06
2022-08-20T07:50:19.189Z,100190.63
2022-08-20T07:52:42.592Z,100190.00
2022-08-20T07:55:06.053Z,100183.53
2022-08-20T07:57:30.789Z,100191.44
2022-08-20T07:59:54.037Z,100193.16
2022-08-20T08:02:17.414Z,100196.09
2022-08-20T08:04:40.755Z,100196.94
2022-08-20T08:07:04.027Z,100196.75
2022-08-20T08:09:27.274Z,100204.69
2022-08-20T08:11:52.407Z,100198.44
2022-08-20T08:14:18.958Z,100196.94
2022-08-20T08:16:45.757Z,100191.34
2022-08-20T08:19:12.036Z,100193.66
2022-08-20T08:21:35.387Z,100200.13
2022-08-20T08:23:58.670Z,100193.84
2022-08-20T08:26:22.451Z,100186.81
2022-08-20T08:28:45.714Z,100193.28
2022-08-20T08:31:10.373Z,100185.31
2022-08-20T08:33:33.660Z,100191.03
2022-08-20T08:35:57.094Z,100185.78
2022-08-20T08:38:20.370Z,100189.34
2022-08-20T08:40:43.637Z,100191.66
2022-08-20T08:43:07.903Z,100188.31
2022-08-20T08:45:43.846Z,100183.25
2022-08-20T08:48:08.863Z,100179.97
2022-08-20T08:50:54.122Z,100187.25
2022-08-20T08:53:18.710Z,100170.53
2022-08-20T08:55:42.159Z,100177.38
2022-08-20T08:58:16.869Z,100183.88
2022-08-20T09:00:55.977Z,100170.22
2022-08-20T09:03:26.010Z,100183.00
2022-08-20T09:05:50.825Z,100161.22
2022-08-20T09:08:17.119Z,100180.28
2022-08-20T09:10:40.621Z,100188.69
2022-08-20T09:13:03.969Z,100178.88
2022-08-20T09:15:27.231Z,100185.78
2022-08-20T09:17:50.600Z,100186.63
2022-08-20T09:20:15.399Z,100184.41
2022-08-20T09:22:38.704Z,100186.97
2022-08-20T09:25:03.626Z,100188.63
2022-08-20T09:27:26.999Z,100182.38
2022-08-20T09:29:50.368Z,100172.75
2022-08-20T09:32:15.725Z,100182.38
2022-08-20T09:34:40.917Z,100172.34
2022-08-20T09:37:05.741Z,100176.72
2022-08-20T09:39:29.202Z,100183.00
2022-08-20T09:41:52.619Z,100171.53
2022-08-20T09:44:15.898Z,100170.84
2022-08-20T09:46:39.239Z,100157.75
2022-08-20T09:49:02.483Z,100171.75
2022-08-20T09:51:25.809Z,100167.16
2022-08-20T09:53:50.489Z,100162.41
2022-08-20T09:56:13.791Z,100170.75
2022-08-20T09:58:38.932Z,100160.28
2022-08-20T10:01:02.894Z,100152.59
2022-08-20T10:03:26.336Z,100155.75
2022-08-20T10:05:49.615Z,100153.59
2022-08-20T10:08:13.390Z,100160.28
2022-08-20T10:10:38.039Z,100155.03
2022-08-20T10:13:02.536Z,100145.81
2022-08-20T10:15:25.843Z,100148.09
2022-08-20T10:17:49.295Z,100151.09
2022-08-20T10:20:13.390Z,100138.56
2022-08-20T10:22:36.855Z,100154.84
2022-08-20T10:25:00.221Z,100150.66
2022-08-20T10:27:24.979Z,100158.78
2022-08-20T10:29:48.248Z,100160.66
2022-08-20T10:32:12.433Z,100149.81
2022-08-20T10:34:36.338Z,100151.47
2022-08-20T10:37:00.168Z,100154.41
2022-08-20T10:39:23.526Z,100155.41
2022-08-20T10:41:46.877Z,100155.88
2022-08-20T10:44:11.513Z,100144.84
2022-08-20T10:46:34.867Z,100149.03
2022-08-20T10:48:58.072Z,100147.16
2022-08-20T10:51:21.331Z,100152.59
2022-08-20T10:53:55.787Z,100150.31
2022-08-20T10:56:19.074Z,100145.94
2022-08-20T10:58:42.418Z,100150.50
2022-08-20T11:01:09.263Z,100154.25
2022-08-20T11:03:32.613Z,100150.06
2022-08-20T11:05:55.861Z,100144.00
2022-08-20T11:08:33.586Z,100148.16
2022-08-20T11:10:57.777Z,100148.16
2022-08-20T11:13:21.057Z,100139.78
2022-08-20T11:15:44.458Z,100143.34
2022-08-20T11:18:09.505Z,100142.94
2022-08-20T11:20:32.887Z,100126.47
2022-08-20T11:22:56.216Z,100137.53
2022-08-20T11:25:19.681Z,100129.38
2022-08-20T11:27:45.190Z,100129.00
2022-08-20T11:30:10.671Z,100131.88
2022-08-20T11:32:33.947Z,100130.03
2022-08-20T11:34:58.618Z,100126.28
2022-08-20T11:37:22.992Z,100128.34
2022-08-20T11:39:46.092Z,100126.03
2022-08-20T11:42:09.426Z,100118.53
2022-08-20T11:44:32.634Z,100122.75
2022-08-20T11:46:59.846Z,100119.19
2022-08-20T11:49:23.151Z,100117.31
2022-08-20T11:51:50.162Z,100120.88
2022-08-20T11:54:13.700Z,100119.38
2022-08-20T11:56:38.579Z,100112.28
2022-08-20T11:59:09.043Z,100122.09
2022-08-20T12:01:35.211Z,100122.09
2022-08-20T12:03:58.506Z,100114.59
2022-08-20T12:06:21.826Z,100111.06
2022-08-20T12:08:46.470Z,100107.28
2022-08-20T12:11:09.735Z,100108.97
2022-08-20T12:13:47.826Z,100106.84
2022-08-20T12:16:12.442Z,100107.69
2022-08-20T12:18:35.782Z,100108.34
2022-08-20T12:20:59.129Z,100105.19
2022-08-20T12:23:22.486Z,100104.72
2022-08-20T12:25:47.108Z,100104.13
2022-08-20T12:28:10.480Z,100116.47
2022-08-20T12:30:33.983Z,100108.47
2022-08-20T12:32:57.425Z,100109.69
2022-08-20T12:35:21.226Z,100107.84
2022-08-20T12:37:44.609Z,100106.97
2022-08-20T12:40:10.800Z,100112.22
2022-08-20T12:42:35.696Z,100101.75
2022-08-20T12:44:59.755Z,100097.44
2022-08-20T12:47:24.177Z,100103.44
2022-08-20T12:49:47.749Z,100095.09
2022-08-20T12:52:11.008Z,100090.91
2022-08-20T12:54:34.322Z,100090.13
2022-08-20T12:56:57.522Z,100084.69
2022-08-20T12:59:25.925Z,100087.03
2022-08-20T13:01:49.538Z,100079.28
2022-08-20T13:04:12.826Z,100084.69
2022-08-20T13:06:36.036Z,100085.31
2022-08-20T13:08:59.380Z,100084.50
2022-08-20T13:11:22.689Z,100083.44
2022-08-20T13:13:47.728Z,100080.06
2022-08-20T13:16:12.405Z,100079.00
2022-08-20T13:18:35.885Z,100070.25
2022-08-20T13:20:59.157Z,100077.13
2022-08-20T13:23:22.516Z,100069.88
2022-08-20T13:25:45.784Z,100071.91
2022-08-20T13:28:09.096Z,100065.84
2022-08-20T13:30:32.504Z,100079.41
2022-08-20T13:32:57.269Z,100075.84
2022-08-20T13:35:20.792Z,100068.09
2022-08-20T13:37:44.050Z,100072.31
2022-08-20T13:40:08.583Z,100066.50
2022-08-20T13:42:31.961Z,100074.19
2022-08-20T13:44:55.337Z,100061.66
2022-08-20T13:47:20.198Z,100067.09
2022-08-20T13:49:44.867Z,100057.91
2022-08-20T13:52:08.235Z,100061.47
2022-08-20T13:54:31.762Z,100066.03
2022-08-20T13:56:55.067Z,100066.88
2022-08-20T13:59:18.454Z,100061.47
2022-08-20T14:01:42.337Z,100052.88
2022-08-20T14:04:05.933Z,100056.25
2022-08-20T14:06:31.678Z,100051.66
2022-08-20T14:08:55.067Z,100053.31
2022-08-20T14:11:19.327Z,100055.00
2022-08-20T14:13:42.809Z,100048.94
2022-08-20T14:16:06.203Z,100049.13
2022-08-20T14:18:44.986Z,100039.97
2022-08-20T14:21:12.229Z,100042.47
2022-08-20T14:23:37.235Z,100046.22
2022-08-20T14:26:00.851Z,100049.94
2022-08-20T14:28:24.981Z,100046.63
2022-08-20T14:30:52.864Z,100051.22
2022-08-20T14:33:16.834Z,100039.09
2022-08-20T14:35:40.203Z,100041.81
2022-08-20T14:38:05.420Z,100036.59
2022-08-20T14:40:30.345Z,100033.06
2022-08-20T14:42:53.834Z,100033.84
2022-08-20T14:45:17.279Z,100036.16
2022-08-20T14:47:42.362Z,100036.34
2022-08-20T14:50:09.360Z,100031.78
2022-08-20T14:52:33.021Z,100030.47
2022-08-20T14:54:56.486Z,100026.94
2022-08-20T14:57:21.237Z,100026.31
2022-08-20T14:59:44.500Z,100032.16
2022-08-20T15:02:08.658Z,100039.00
2022-08-20T15:04:31.963Z,100032.56
2022-08-20T15:06:55.199Z,100040.03
2022-08-20T15:09:22.290Z,100043.47
2022-08-20T15:11:46.097Z,100030.91
2022-08-20T15:14:10.822Z,100037.00
2022-08-20T15:16:34.392Z,100043.25
2022-08-20T15:18:59.653Z,100031.13
2022-08-20T15:21:23.289Z,100025.69
2022-08-20T15:23:46.659Z,100028.56
2022-08-20T15:26:09.914Z,100024.03
2022-08-20T15:28:33.302Z,100022.16
2022-08-20T15:30:58.124Z,100015.25
2022-08-20T15:33:21.384Z,100024.44
2022-08-20T15:35:44.731Z,100021.50
2022-08-20T15:38:08.020Z,100016.53
2022-08-20T15:40:32.517Z,100016.06
2022-08-20T15:42:55.806Z,100024.44
2022-08-20T15:45:22.077Z,100035.28
2022-08-20T15:47:53.000Z,100027.13
2022-08-20T15:50:19.201Z,100015.75
2022-08-20T15:52:43.991Z,100023.06
2022-08-20T15:55:08.129Z,100028.16
2022-08-20T15:57:38.497Z,100025.69
2022-08-20T16:00:10.347Z,100025.25
2022-08-20T16:03:06.792Z,100016.84
2022-08-20T16:05:37.954Z,100024.22
2022-08-20T16:08:08.692Z,100027.97
2022-08-20T16:10:36.254Z,100033.19
2022-08-20T16:13:01.039Z,100030.97
2022-08-20T16:15:25.478Z,100033.63
2022-08-20T16:17:50.439Z,100043.44
2022-08-20T16:20:18.833Z,100046.50
2022-08-20T16:22:44.213Z,100057.34
2022-08-20T16:25:08.121Z,100050.34
2022-08-20T16:27:35.771Z,100058.09
2022-08-20T16:30:01.362Z,100045.53
2022-08-20T16:32:33.329Z,100052.69
2022-08-20T16:34:57.948Z,100045.84
2022-08-20T16:37:26.438Z,100043.66
2022-08-20T16:39:53.460Z,100051.94
2022-08-20T16:42:16.782Z,100056.53
2022-08-20T16:44:40.890Z,100042.22
2022-08-20T16:47:14.242Z,100042.13
2022-08-20T16:49:38.347Z,100050.34
2022-08-20T16:52:02.946Z,100054.72
2022-08-20T16:54:28.305Z,100058.25
2022-08-20T16:56:59.230Z,100059.84
2022-08-20T16:59:27.059Z,100063.22
2022-08-20T17:01:51.140Z,100064.06
2022-08-20T17:04:20.922Z,100071.34
2022-08-20T17:06:46.897Z,100067.22
2022-08-20T17:09:12.357Z,100067.66
2022-08-20T17:11:37.099Z,100060.31
2022-08-20T17:14:14.090Z,100067.22
2022-08-20T17:16:39.068Z,100073.91
2022-08-20T17:19:09.527Z,100075.28
2022-08-20T17:21:35.618Z,100081.09
2022-08-20T17:24:00.265Z,100085.47
2022-08-20T17:26:26.102Z,100076.50
2022-08-20T17:28:55.860Z,100080.25
2022-08-20T17:31:38.627Z,100082.59
2022-08-20T17:34:02.531Z,100093.44
2022-08-20T17:36:26.384Z,100096.31
2022-08-20T17:38:51.014Z,100084.19
2022-08-20T17:41:25.554Z,100086.13
2022-08-20T17:43:48.937Z,100091.53
2022-08-20T17:46:16.717Z,100075.38
2022-08-20T17:48:42.666Z,100096.13
2022-08-20T17:51:12.090Z,100092.09
2022-08-20T17:53:39.206Z,100106.97
2022-08-20T17:56:04.090Z,100094.44
2022-08-20T17:58:32.742Z,100099.69
2022-08-20T18:00:56.012Z,100099.84
2022-08-20T18:03:23.462Z,100102.78
2022-08-20T18:05:47.166Z,100092.69
2022-08-20T18:08:16.742Z,100100.44
2022-08-20T18:10:43.801Z,100101.94
2022-08-20T18:13:09.378Z,100106.53
2022-08-20T18:15:33.159Z,100102.56
2022-08-20T18:18:04.574Z,100100.91
2022-08-20T18:21:05.764Z,100096.69
2022-08-20T18:23:29.797Z,100097.16
2022-08-20T18:25:54.741Z,100097.97
2022-08-20T18:28:20.318Z,100099.03
2022-08-20T18:30:51.655Z,100105.09
2022-08-20T18:33:15.018Z,100102.56
2022-08-20T18:35:45.547Z,100101.56
2022-08-20T18:38:26.048Z,100100.50
2022-08-20T18:40:53.100Z,100110.13
2022-08-20T18:43:27.425Z,100116.56
2022-08-20T18:45:50.708Z,100106.78
2022-08-20T18:48:21.861Z,100109.09
2022-08-20T18:50:46.118Z,100116.94
2022-08-20T18:53:12.554Z,100116.09
2022-08-20T18:55:38.653Z,100111.41
2022-08-20T18:58:02.748Z,100108.56
2022-08-20T19:00:30.465Z,100110.06
2022-08-20T19:02:56.580Z,100105.59
2022-08-20T19:05:26.695Z,100098.03
2022-08-20T19:07:49.943Z,100111.88
2022-08-20T19:10:28.584Z,100116.06
2022-08-20T19:13:33.313Z,100115.41
2022-08-20T19:16:02.148Z,100116.09
2022-08-20T19:18:26.892Z,100113.47
2022-08-20T19:20:52.706Z,100113.63
2022-08-20T19:23:20.087Z,100110.91
2022-08-20T19:25:49.662Z,100122.38
2022-08-20T19:28:18.751Z,100099.84
2022-08-20T19:30:43.450Z,100102.69
2022-08-20T19:33:09.215Z,100099.69
2022-08-20T19:35:32.521Z,100103.03
2022-08-20T19:37:55.902Z,100101.28
2022-08-20T19:40:20.872Z,100106.78
2022-08-20T19:42:44.427Z,100099.69
2022-08-20T19:45:08.943Z,100099.84
2022-08-20T19:47:34.701Z,100096.53
2022-08-20T19:50:06.314Z,100099.03
2022-08-20T19:52:37.062Z,100093.34
2022-08-20T19:55:04.078Z,100096.31
2022-08-20T19:57:27.590Z,100104.66
2022-08-20T19:59:56.250Z,100103.16
2022-08-20T20:02:20.597Z,100102.50
2022-08-20T20:04:55.776Z,100111.88
2022-08-20T20:07:24.139Z,100111.53
2022-08-20T20:09:47.627Z,100107.59
2022-08-20T20:12:22.527Z,100107.59
2022-08-20T20:14:46.582Z,100112.84
2022-08-20T20:17:14.535Z,100104.75
2022-08-20T20:19:46.182Z,100103.00
2022-08-20T20:22:19.637Z,100107.47
2022-08-20T20:24:45.818Z,100108.75
2022-08-20T20:27:10.462Z,100117.53
2022-08-20T20:29:37.623Z,100118.84
2022-08-20T20:32:01.321Z,100117.75
2022-08-20T20:34:26.651Z,100119.88
2022-08-20T20:36:50.045Z,100126.41
2022-08-20T20:39:26.027Z,100112.03
2022-08-20T20:41:53.441Z,100112.34
2022-08-20T20:44:20.395Z,100110.38
2022-08-20T20:46:46.135Z,100108.66
2022-08-20T20:49:16.646Z,100118.19
2022-08-20T20:51:41.211Z,100114.47
2022-08-20T20:54:06.719Z,100123.03
2022-08-20T20:56:32.804Z,100122.19
2022-08-20T20:58:58.612Z,100120.78
2022-08-20T21:01:27.224Z,100117.06
2022-08-20T21:04:05.364Z,100114.91
2022-08-20T21:06:29.426Z,100108.78
2022-08-20T21:08:52.860Z,100108.66
2022-08-20T21:11:16.138Z,100104.91
2022-08-20T21:13:39.432Z,100104.44
2022-08-20T21:16:09.436Z,100105.78
2022-08-20T21:18:36.456Z,100095.56
2022-08-20T21:20:59.718Z,100090.53
2022-08-20T21:23:40.007Z,100082.69
2022-08-20T21:26:05.597Z,100092.72
2022-08-20T21:28:28.928Z,100090.16
2022-08-20T21:30:58.602Z,100086.91
2022-08-20T21:33:23.419Z,100089.03
2022-08-20T21:35:46.869Z,100089.91
2022-08-20T21:38:10.164Z,100090.66
2022-08-20T21:40:37.259Z,100081.63
2022-08-20T21:43:00.478Z,100080.28
2022-08-20T21:45:24.028Z,100069.41
2022-08-20T21:47:51.665Z,100075.81
2022-08-20T21:50:16.575Z,100069.88
2022-08-20T21:52:42.366Z,100075.31
2022-08-20T21:55:21.443Z,100065.63
2022-08-20T21:57:44.733Z,100061.78
2022-08-20T22:00:12.429Z,100058.69
2022-08-20T22:02:35.705Z,100057.63
2022-08-20T22:04:59.123Z,100058.78
2022-08-20T22:07:23.763Z,100046.38
2022-08-20T22:09:47.088Z,100047.03
2022-08-20T22:12:15.760Z,100051.56
2022-08-20T22:14:39.061Z,100053.09
2022-08-20T22:17:02.295Z,100047.94
2022-08-20T22:19:25.670Z,100048.88
2022-08-20T22:21:49.489Z,100044.41
2022-08-20T22:24:14.250Z,100039.69
2022-08-20T22:26:38.334Z,100033.59
2022-08-20T22:29:01.662Z,100035.25
2022-08-20T22:31:27.301Z,100038.75
2022-08-20T22:33:50.678Z,100024.38
2022-08-20T22:36:13.933Z,100028.34
2022-08-20T22:38:37.257Z,100029.34
2022-08-20T22:41:04.239Z,100028.53
2022-08-20T22:43:30.990Z,100023.16
2022-08-20T22:45:55.638Z,100005.78
2022-08-20T22:48:19.869Z,100013.44
2022-08-20T22:50:43.135Z,100017.69
2022-08-20T22:53:06.426Z,100026.41
2022-08-20T22:55:29.661Z,100024.19
2022-08-20T22:57:54.417Z,100014.47
2022-08-20T23:00:20.293Z,100015.88
2022-08-20T23:02:43.847Z,100020.22
2022-08-20T23:05:07.634Z,100017.31
2022-08-20T23:07:31.158Z,100025.72
2022-08-20T23:09:54.442Z,100014.41
2022-08-20T23:12:17.670Z,100010.59
2022-08-20T23:14:42.444Z,100013.94
2022-08-20T23:17:11.343Z,100023.25
2022-08-20T23:19:36.426Z,100016.84
2022-08-20T23:21:59.770Z,100016.84
2022-08-20T23:24:23.005Z,100015.34
2022-08-20T23:26:52.416Z,100006.41
2022-08-20T23:29:16.694Z,100005.53
2022-08-20T23:31:47.268Z,100011.94
2022-08-20T23:34:11.649Z,100010.66
2022-08-20T23:36:36.518Z,100011.75
2022-08-20T23:38:59.762Z,100007.50
2022-08-20T23:41:24.547Z,100014.13
2022-08-20T23:43:47.775Z,100011.53
2022-08-20T23:46:11.198Z,100019.75
2022-08-20T23:48:35.985Z,100019.16
2022-08-20T23:50:59.295Z,100015.84
2022-08-20T23:53:22.534Z,100022.63
2022-08-20T23:55:46.334Z,100025.00
2022-08-20T23:58:09.758Z,100023.13
